Willowbrook, Canada
Current Conditions -  °F | °C
As of 11:00 PM on Wednesday 22 Oct 2014 (Local Time) from CYQV Reporting Station
Overcast Overcast  
Wind Chill: 50°   Ceiling: 8500
Heat Index: 50°   Visibility: 9mi
Dew Point: 46°   Wind: 8mph
Humidity: 87%   Direction: 270°W
Pressure: 29.72"   Gusts: NA
Location:  51.2°N, 102.8°W
Report Text: CYQV 230500Z AUTO 27007KT 9SM SCT022 OVC085 10/08 A2972 RMK SLP073
Loading
Personal Weather Stations






























Interactive Weather Map
Tropical Storm Tracking
New forecast layout! Learn more

10-Day Weather Forecast

Advertisements
Track Severe Weather on mobile